Flight Track Log - Related Links

Times and Time Zones

All times are in EDT time to prevent confusion due to time zone crossing. See the N618JB flight status page for this flight to view local times or setup timezone preferences in your user account.

Time Position Orientation Groundspeed Altitude Reporting Facility
EDT Latitude Longitude Course Direction KTS MPH feet Rate Location/Type
Wed 08:18:00 PM 42.3667 -70.9833 278° West 133 153 700  Level KA90
Wed 08:18:42 PM 42.3667 -70.9333 90° East 162 186 2,200 2,000 Climbing KA90
Wed 08:19:42 PM 42.3833 -70.8500 75° East 222 255 4,100 2,083 Climbing KA90
Wed 08:20:43 PM 42.4167 -70.7833 56° Northeast 254 292 6,400 2,579 Climbing KA90
Wed 08:21:00 PM 42.8841 -72.5155 277° West  Level FlightAware Approximate
Wed 08:21:43 PM 42.4833 -70.7667 10° North 269 310 9,300  Level KA90
Wed 08:22:00 PM 42.8968 -72.6628 277° West  Level FlightAware Approximate
Wed 08:23:00 PM 42.9110 -72.8099 278° West  Level FlightAware Approximate
Wed 08:23:02 PM 42.5542 -70.8731 312° West 294 338 12,200  Level Boston Center
Wed 08:25:02 PM 42.6589 -71.0594 307° West 311 358 17,000 2,100 Climbing Boston Center
Wed 08:26:02 PM 42.7142 -71.1544 308° West 318 366 18,500 1,150 Climbing Boston Center
Wed 08:27:02 PM 42.7692 -71.2467 309° West 329 379 19,300 800 Climbing Boston Center
Wed 08:28:02 PM 42.7978 -71.3903 285° West 367 422 20,100 1,200 Climbing Boston Center
Wed 08:29:02 PM 42.8097 -71.5656 275° West 404 465 21,700 1,450 Climbing Boston Center
Wed 08:30:02 PM 42.8253 -71.7267 278° West 418 481 23,000 1,200 Climbing Boston Center
Wed 08:31:02 PM 42.8431 -71.8936 278° West 436 502 24,100 1,150 Climbing Boston Center
Wed 08:32:02 PM 42.8561 -72.0633 276° West 449 517 25,300 1,200 Climbing Boston Center
Wed 08:33:02 PM 42.8733 -72.2333 278° West 454 522 26,500 1,000 Climbing Boston Center
Wed 08:34:02 PM 42.8964 -72.3892 281° West 465 535 27,300 800 Climbing Boston Center
Wed 08:35:02 PM 42.9108 -72.5678 276° West 470 541 28,100 850 Climbing Boston Center
Wed 08:36:02 PM 42.9169 -72.7464 273° West 476 548 29,000 800 Climbing Boston Center
Wed 08:37:02 PM 42.9328 -72.9306 277° West 482 555 29,700 1,000 Climbing Boston Center
Wed 08:38:02 PM 42.9528 -73.1350 278° West 487 560 31,000 1,100 Climbing Boston Center
Wed 08:39:02 PM 42.9658 -73.3197 276° West 487 560 31,900 850 Climbing Boston Center
Wed 08:40:02 PM 42.9769 -73.4986 275° West 487 560 32,700 950 Climbing Boston Center
Wed 08:41:02 PM 42.9919 -73.6778 277° West 482 555 33,800 650 Climbing Boston Center
Wed 08:42:02 PM 43.0064 -73.8569 276° West 482 555 34,000 100 Climbing Boston Center
Wed 08:43:02 PM 43.0208 -74.0361 276° West 482 555 34,000  Level Boston Center
Wed 08:44:02 PM 43.0328 -74.2153 275° West 482 555 34,000  Level Boston Center
Wed 08:45:02 PM 43.0464 -74.3975 276° West 482 555 34,000  Level Boston Center
Wed 08:46:02 PM 43.0561 -74.5569 275° West 482 555 34,000  Level Boston Center
Wed 08:47:02 PM 43.0692 -74.7394 276° West 477 549 34,000  Level Boston Center
Wed 08:48:02 PM 43.0819 -74.9192 276° West 482 555 34,000 -50 Level Boston Center
Wed 08:49:02 PM 43.0928 -75.0958 275° West 476 548 33,900  Descending Boston Center
Wed 08:50:02 PM 43.1050 -75.2783 275° West 476 548 34,000 50 Climbing Boston Center
Wed 08:51:02 PM 43.1169 -75.4581 275° West 481 554 34,000 -50 Level Boston Center
Wed 08:52:02 PM 43.1267 -75.6408 274° West 481 554 33,900  Descending Boston Center
Wed 08:53:02 PM 43.1381 -75.8178 275° West 481 554 34,000  Climbing Boston Center
Wed 08:54:58 PM 43.1600 -76.1769 275° West 474 545 33,900  Descending Cleveland Center
Wed 08:55:58 PM 43.1606 -76.3592 270° West 474 545 34,000 50 Climbing Cleveland Center
Wed 08:56:58 PM 43.1606 -76.5328 270° West 474 545 34,000 -50 Level Cleveland Center
Wed 08:57:58 PM 43.1614 -76.6781 271° West 474 545 33,900  Descending Cleveland Center
Wed 08:58:58 PM 43.1594 -76.8744 269° West 479 551 34,000 50 Climbing Cleveland Center
Wed 08:59:58 PM 43.1586 -77.0511 270° West 479 551 34,000  Level Cleveland Center
Wed 09:00:58 PM 43.1578 -77.2306 270° West 479 551 34,000  Level Cleveland Center
Wed 09:01:58 PM 43.1567 -77.4100 270° West 479 551 34,000  Level Cleveland Center
Wed 09:02:58 PM 43.1550 -77.5864 269° West 479 551 34,000  Level Cleveland Center
Wed 09:03:58 PM 43.1511 -77.7658 268° West 479 551 34,000  Level Cleveland Center
Wed 09:04:58 PM 43.1517 -77.9650 270° West 479 551 34,000  Level Cleveland Center
Wed 09:05:58 PM 43.1472 -78.1389 268° West 479 551 34,000  Level Cleveland Center
Wed 09:06:58 PM 43.1467 -78.3153 270° West 474 545 34,000  Level Cleveland Center
Wed 09:07:58 PM 43.1667 -78.4939 279° West 474 545 34,000  Level Cleveland Center
Wed 09:08:58 PM 43.1947 -78.6667 283° West 474 545 34,000  Level Cleveland Center
Wed 09:09:58 PM 43.2222 -78.8369 283° West 474 545 34,000  Level Cleveland Center
Wed 09:10:24 PM 43.2333 -78.8833 288° West 470 541 34,000  Level Toronto Center
Wed 09:11:24 PM 43.2500 -79.0833 277° West 470 541 34,000  Level Toronto Center
Wed 09:12:24 PM 43.2833 -79.2500 285° West 470 541 34,000  Level Toronto Center
Wed 09:13:24 PM 43.3000 -79.4333 277° West 470 541 34,000  Level Toronto Center
Wed 09:14:24 PM 43.3333 -79.5833 287° West 470 541 34,000  Level Toronto Center
Wed 09:15:24 PM 43.3667 -79.7667 284° West 470 541 34,000  Level Toronto Center
Wed 09:16:24 PM 43.3833 -79.9500 277° West 460 529 34,000  Level Toronto Center
Wed 09:17:24 PM 43.4167 -80.1167 285° West 460 529 34,000  Level Toronto Center
Wed 09:18:24 PM 43.4333 -80.3000 277° West 460 529 34,000  Level Toronto Center
Wed 09:19:24 PM 43.4500 -80.4833 277° West 460 529 34,000  Level Toronto Center
Wed 09:20:24 PM 43.4333 -80.6500 262° West 460 529 34,000  Level Toronto Center
Wed 09:21:24 PM 43.4000 -80.8333 256° West 460 529 34,000  Level Toronto Center
Wed 09:22:24 PM 43.3833 -80.9833 261° West 460 529 34,000  Level Toronto Center
Wed 09:23:24 PM 43.3833 -81.1667 270° West 460 529 34,000  Level Toronto Center
Wed 09:24:24 PM 43.3667 -81.3333 262° West 450 518 34,000  Level Toronto Center
Wed 09:25:24 PM 43.3500 -81.4833 261° West 450 518 34,000  Level Toronto Center
Wed 09:26:24 PM 43.3500 -81.6667 270° West 450 518 34,000  Level Toronto Center
Wed 09:27:24 PM 43.3333 -81.8500 263° West 450 518 34,000  Level Toronto Center
Wed 09:28:24 PM 43.3000 -82.0167 255° West 450 518 34,000  Level Toronto Center
Wed 09:29:24 PM 43.2833 -82.2000 263° West 450 518 34,000  Level Toronto Center
Wed 09:30:24 PM 43.2833 -82.3667 270° West 450 518 34,000  Level Toronto Center
Wed 09:31:24 PM 43.2667 -82.5333 262° West 450 518 34,000  Level Toronto Center
Wed 09:32:45 PM 43.2753 -82.7617 273° West 463 533 34,000  Level Cleveland Center
Wed 09:33:45 PM 43.3094 -82.9311 286° West 463 533 34,000  Level Cleveland Center
Wed 09:34:45 PM 43.3539 -83.0956 290° West 456 525 34,000  Level Cleveland Center
Wed 09:35:45 PM 43.3981 -83.2631 290° West 461 531 34,000  Level Cleveland Center
Wed 09:36:45 PM 43.4419 -83.4339 290° West 466 536 34,000  Level Cleveland Center
Wed 09:38:38 PM 43.5269 -83.7611 290° West 466 536 34,000  Level Minneapolis Center
Wed 09:39:39 PM 43.5692 -83.9269 289° West 463 533 34,000  Level Minneapolis Center
Wed 09:40:41 PM 43.6122 -84.0942 290° West 463 533 34,000  Level Minneapolis Center
Wed 09:41:42 PM 43.6531 -84.2619 289° West 463 533 34,000  Level Minneapolis Center
Wed 09:42:44 PM 43.6956 -84.4303 289° West 465 535 34,000  Level Minneapolis Center
Wed 09:43:45 PM 43.7381 -84.5983 289° West 465 535 34,000  Level Minneapolis Center
Wed 09:44:46 PM 43.7794 -84.7672 289° West 466 536 34,000  Level Minneapolis Center
Wed 09:45:48 PM 43.8208 -84.9344 289° West 463 533 34,000  Level Minneapolis Center
Wed 09:46:49 PM 43.8692 -85.1356 288° West 462 532 34,000  Level Minneapolis Center
Wed 09:47:51 PM 43.9106 -85.3067 289° West 465 535 34,000  Level Minneapolis Center
Wed 09:48:52 PM 43.9511 -85.4764 288° West 467 537 34,000  Level Minneapolis Center
Wed 09:49:53 PM 43.9911 -85.6450 288° West 466 536 34,000  Level Minneapolis Center
Wed 09:50:54 PM 44.0294 -85.8106 288° West 460 529 34,000  Level Minneapolis Center
Wed 09:51:56 PM 44.0692 -85.9792 288° West 461 531 34,000  Level Minneapolis Center
Wed 09:52:57 PM 44.1006 -86.1142 288° West 461 531 34,000  Level Minneapolis Center
Wed 09:53:58 PM 44.1492 -86.3269 288° West 462 532 34,000  Level Minneapolis Center
Wed 09:54:59 PM 44.1875 -86.4989 287° West 463 533 34,000  Level Minneapolis Center
Wed 09:56:00 PM 44.2256 -86.6689 287° West 458 527 34,000  Level Minneapolis Center
Wed 09:57:02 PM 44.2714 -86.8733 287° West 459 528 34,000  Level Minneapolis Center
Wed 09:58:03 PM 44.3089 -87.0414 287° West 455 524 34,000  Level Minneapolis Center
Wed 09:59:04 PM 44.3461 -87.2081 287° West 455 524 34,000  Level Minneapolis Center
Wed 10:00:05 PM 44.3822 -87.3767 287° West 454 522 34,000  Level Minneapolis Center
Wed 10:01:06 PM 44.4186 -87.5450 287° West 454 522 34,000  Level Minneapolis Center
Wed 10:02:08 PM 44.4547 -87.7156 287° West 457 526 34,000  Level Minneapolis Center
Wed 10:03:09 PM 44.4919 -87.8875 287° West 454 522 34,000  Level Minneapolis Center
Wed 10:04:10 PM 44.5256 -88.0511 286° West 450 518 34,000  Level Minneapolis Center
Wed 10:05:11 PM 44.5603 -88.2208 286° West 453 521 34,000  Level Minneapolis Center
Wed 10:06:12 PM 44.5856 -88.4217 280° West 450 518 34,000  Level Minneapolis Center
Wed 10:07:13 PM 44.6081 -88.5933 280° West 448 516 34,000  Level Minneapolis Center
Wed 10:08:14 PM 44.6289 -88.7614 280° West 441 507 34,000  Level Minneapolis Center
Wed 10:09:16 PM 44.6500 -88.9303 280° West 439 505 34,000  Level Minneapolis Center
Wed 10:10:17 PM 44.6697 -89.0989 279° West 439 505 34,000  Level Minneapolis Center
Wed 10:11:18 PM 44.6908 -89.2653 280° West 437 503 34,000  Level Minneapolis Center
Wed 10:12:19 PM 44.7106 -89.4333 279° West 436 502 34,000  Level Minneapolis Center
Wed 10:13:20 PM 44.7314 -89.6022 280° West 438 504 34,000  Level Minneapolis Center
Wed 10:14:21 PM 44.7503 -89.7689 279° West 435 501 34,000  Level Minneapolis Center
Wed 10:15:22 PM 44.7731 -89.9669 279° West 438 504 34,000  Level Minneapolis Center
Wed 10:16:23 PM 44.7922 -90.1353 279° West 437 503 34,000  Level Minneapolis Center
Wed 10:17:25 PM 44.8106 -90.3025 279° West 433 498 34,000  Level Minneapolis Center
Wed 10:18:26 PM 44.8294 -90.4700 279° West 434 499 34,000  Level Minneapolis Center
Wed 10:19:27 PM 44.8475 -90.6331 279° West 431 496 34,000  Level Minneapolis Center
Wed 10:20:28 PM 44.8658 -90.8017 279° West 434 499 34,000  Level Minneapolis Center
Wed 10:21:29 PM 44.8847 -90.9914 278° West 443 510 34,000  Level Minneapolis Center
Wed 10:22:30 PM 44.9044 -91.1625 279° West 431 496 34,000  Level Minneapolis Center
Wed 10:23:31 PM 44.9197 -91.3242 278° West 430 495 34,000  Level Minneapolis Center
Wed 10:24:33 PM 44.9383 -91.4967 279° West 428 493 34,000  Level Minneapolis Center
Wed 10:25:34 PM 44.9542 -91.6553 278° West 426 490 34,000  Level Minneapolis Center
Wed 10:26:35 PM 44.9678 -91.8172 277° West 419 482 34,000  Level Minneapolis Center
Wed 10:27:36 PM 44.9856 -91.9828 279° West 425 489 34,000  Level Minneapolis Center
Wed 10:28:37 PM 45.0014 -92.1478 278° West 427 491 34,000  Level Minneapolis Center
Wed 10:29:38 PM 45.0172 -92.3103 278° West 420 483 34,000  Level Minneapolis Center
Wed 10:30:39 PM 45.0314 -92.4736 277° West 422 486 34,000  Level Minneapolis Center
Wed 10:31:40 PM 45.0500 -92.6686 278° West 421 484 34,000  Level Minneapolis Center
Wed 10:32:41 PM 45.0647 -92.8289 277° West 416 479 34,000  Level Minneapolis Center
Wed 10:33:42 PM 45.0786 -92.9886 277° West 415 478 34,000  Level Minneapolis Center
Wed 10:34:44 PM 45.0928 -93.1492 277° West 416 479 34,000  Level Minneapolis Center
Wed 10:35:45 PM 45.1061 -93.3081 277° West 414 476 34,000  Level Minneapolis Center
Wed 10:36:46 PM 45.1192 -93.4669 277° West 412 474 34,000  Level Minneapolis Center
Wed 10:37:47 PM 45.1328 -93.6269 277° West 413 475 34,000  Level Minneapolis Center
Wed 10:38:48 PM 45.1478 -93.8203 276° West 414 476 34,000  Level Minneapolis Center
Wed 10:39:49 PM 45.1606 -93.9833 276° West 418 481 34,000  Level Minneapolis Center
Wed 10:40:50 PM 45.1733 -94.1447 276° West 416 479 34,000  Level Minneapolis Center
Wed 10:41:51 PM 45.1858 -94.3064 276° West 416 479 34,000  Level Minneapolis Center
Wed 10:42:52 PM 45.1783 -94.4617 266° West 397 457 34,000  Level Minneapolis Center
Wed 10:43:53 PM 45.1667 -94.6161 264° West 394 453 34,000  Level Minneapolis Center
Wed 10:44:54 PM 45.1539 -94.7797 264° West 395 455 34,000  Level Minneapolis Center
Wed 10:45:55 PM 45.1397 -94.9331 263° West 395 455 34,000 49 Level Minneapolis Center
Wed 10:46:56 PM 45.1267 -95.0861 263° West 394 453 34,100  Climbing Minneapolis Center
Wed 10:47:57 PM 45.1136 -95.2386 263° West 392 451 34,000 -49 Descending Minneapolis Center
Wed 10:48:58 PM 45.1000 -95.3894 263° West 390 449 34,000  Level Minneapolis Center
Wed 10:50:00 PM 45.0858 -95.5411 263° West 391 450 34,000  Level Minneapolis Center
Wed 10:51:01 PM 45.0694 -95.7231 263° West 391 450 34,000  Level Minneapolis Center
Wed 10:52:02 PM 45.0572 -95.8728 263° West 387 445 34,000  Level Minneapolis Center
Wed 10:53:03 PM 45.0411 -96.0225 261° West 388 447 34,000  Level Minneapolis Center
Wed 10:54:04 PM 45.0283 -96.1725 263° West 387 445 34,000  Level Minneapolis Center
Wed 10:55:05 PM 45.0128 -96.3231 262° West 390 449 34,000  Level Minneapolis Center
Wed 10:56:06 PM 44.9992 -96.4728 263° West 388 447 34,000  Level Minneapolis Center
Wed 10:57:07 PM 44.9833 -96.6247 262° West 391 450 34,000  Level Minneapolis Center
Wed 10:58:08 PM 44.9681 -96.7767 262° West 394 453 34,000 49 Level Minneapolis Center
Wed 10:59:10 PM 44.9517 -96.9297 261° West 396 456 34,100  Climbing Minneapolis Center
Wed 11:00:11 PM 44.9333 -97.1139 262° West 396 456 34,000 -49 Descending Minneapolis Center
Wed 11:01:12 PM 44.9161 -97.2664 261° West 397 457 34,000  Level Minneapolis Center
Wed 11:02:13 PM 44.8994 -97.4178 261° West 395 455 34,000  Level Minneapolis Center
Wed 11:03:14 PM 44.8856 -97.5669 263° West 389 448 34,000  Level Minneapolis Center
Wed 11:04:16 PM 44.8689 -97.7178 261° West 390 449 34,000  Level Minneapolis Center
Wed 11:05:17 PM 44.8519 -97.8669 261° West 388 447 34,000  Level Minneapolis Center
Wed 11:06:18 PM 44.8353 -98.0200 261° West 396 456 34,000 49 Level Minneapolis Center
Wed 11:07:19 PM 44.8161 -98.1753 260° West 399 459 34,100  Climbing Minneapolis Center
Wed 11:08:20 PM 44.7972 -98.3292 260° West 401 461 34,000 -49 Descending Minneapolis Center
Wed 11:09:22 PM 44.7772 -98.5142 261° West 400 460 34,000  Level Minneapolis Center
Wed 11:10:23 PM 44.7589 -98.6667 260° West 398 458 34,000 443 Level Minneapolis Center
Wed 11:11:24 PM 44.7419 -98.8169 261° West 392 451 34,900 934 Climbing Minneapolis Center
Wed 11:12:25 PM 44.7244 -98.9611 260° West 380 437 35,900 537 Climbing Minneapolis Center
Wed 11:13:27 PM 44.7064 -99.1069 260° West 377 434 36,000 49 Climbing Minneapolis Center
Wed 11:14:28 PM 44.6886 -99.2556 260° West 382 440 36,000  Level Minneapolis Center
Wed 11:15:29 PM 44.6692 -99.4050 260° West 386 444 36,000  Level Minneapolis Center
Wed 11:16:30 PM 44.6494 -99.5569 260° West 391 450 36,000  Level Minneapolis Center
Wed 11:17:32 PM 44.6303 -99.7097 260° West 394 453 36,000  Level Minneapolis Center
Wed 11:18:33 PM 44.6100 -99.8631 260° West 396 456 36,000  Level Minneapolis Center
Wed 11:19:34 PM 44.5900 -100.0169 260° West 398 458 36,000  Level Minneapolis Center
Wed 11:20:35 PM 44.5706 -100.1683 260° West 395 455 36,000  Level Minneapolis Center
Wed 11:21:36 PM 44.5489 -100.3214 259° West 396 456 36,000  Level Minneapolis Center
Wed 11:22:37 PM 44.5294 -100.4747 260° West 398 458 36,000  Level Minneapolis Center
Wed 11:23:39 PM 44.5078 -100.6278 259° West 399 459 36,000  Level Minneapolis Center
Wed 11:24:40 PM 44.4825 -100.8117 259° West 400 460 36,000  Level Minneapolis Center
Wed 11:25:41 PM 44.4606 -100.9669 259° West 402 463 36,000  Level Minneapolis Center
Wed 11:26:42 PM 44.4383 -101.1217 259° West 404 465 36,000  Level Minneapolis Center
Wed 11:27:43 PM 44.4178 -101.2767 260° West 405 466 36,000  Level Minneapolis Center
Wed 11:28:44 PM 44.3953 -101.4311 259° West 406 467 36,000  Level Minneapolis Center
Wed 11:29:46 PM 44.3722 -101.5856 258° West 406 467 36,000  Level Minneapolis Center
Wed 11:30:05 PM 44.3611 -101.6467 256° West 408 470 36,000  Level Denver Center
Wed 11:31:06 PM 44.3392 -101.8025 259° West 408 470 36,000  Level Denver Center
Wed 11:32:07 PM 44.3161 -101.9586 258° West 410 472 36,000  Level Denver Center
Wed 11:33:08 PM 44.2922 -102.1136 258° West 410 472 36,000  Level Denver Center
Wed 11:34:09 PM 44.2697 -102.2703 259° West 411 473 36,000  Level Denver Center
Wed 11:35:10 PM 44.2436 -102.4264 257° West 413 475 36,000  Level Denver Center
Wed 11:36:11 PM 44.2200 -102.5842 258° West 415 478 36,000  Level Denver Center
Wed 11:37:12 PM 44.1950 -102.7436 258° West 420 483 36,000  Level Denver Center
Wed 11:38:14 PM 44.1708 -102.9031 258° West 421 484 36,000  Level Denver Center
Wed 11:39:15 PM 44.1431 -103.0756 257° West 426 490 36,000  Level Denver Center
Wed 11:40:16 PM 44.1183 -103.2292 257° West 426 490 36,000  Level Denver Center
Wed 11:41:17 PM 44.0889 -103.4111 257° West 430 495 36,000  Level Denver Center
Wed 11:42:18 PM 44.0650 -103.5653 258° West 430 495 36,000  Level Denver Center
Wed 11:43:19 PM 44.0333 -103.7453 256° West 430 495 36,000  Level Denver Center
Wed 11:44:20 PM 44.0086 -103.8994 257° West 430 495 36,000  Level Denver Center
Wed 11:45:21 PM 43.9817 -104.0553 257° West 434 499 36,000  Level Denver Center
Wed 11:46:22 PM 43.9514 -104.2344 257° West 429 494 36,000  Level Denver Center
Wed 11:47:23 PM 43.9247 -104.3900 257° West 432 497 36,000  Level Denver Center
Wed 11:48:24 PM 43.8972 -104.5433 256° West 430 495 36,000  Level Denver Center
Wed 11:49:25 PM 43.8658 -104.7242 257° West 432 497 36,000  Level Denver Center
Wed 11:50:26 PM 43.8378 -104.8806 256° West 436 502 36,000  Level Denver Center
Wed 11:51:27 PM 43.8061 -105.0642 257° West 439 505 36,000  Level Denver Center
Wed 11:52:28 PM 43.7767 -105.2219 256° West 442 509 36,000  Level Denver Center
Wed 11:53:29 PM 43.7486 -105.3769 256° West 439 505 36,000  Level Denver Center
Wed 11:54:30 PM 43.7150 -105.5583 256° West 437 503 36,000  Level Denver Center
Wed 11:55:31 PM 43.6875 -105.7117 256° West 433 498 36,000  Level Denver Center
Wed 11:56:32 PM 43.6522 -105.8956 255° West 441 507 36,000  Level Denver Center
Wed 11:57:33 PM 43.6228 -106.0514 255° West 439 505 36,000  Level Denver Center
Wed 11:58:35 PM 43.5925 -106.2081 255° West 441 507 36,000  Level Denver Center
Wed 11:59:37 PM 43.5575 -106.3906 255° West 443 510 36,000  Level Denver Center
Thu 12:00:38 AM 43.5275 -106.5464 255° West 442 509 36,000  Level Denver Center
Thu 12:01:39 AM 43.4975 -106.7028 255° West 443 510 36,000  Level Denver Center
Thu 12:02:40 AM 43.4608 -106.8858 255° West 447 514 36,000  Level Denver Center
Thu 12:03:41 AM 43.4272 -107.0547 255° West 442 509 36,000  Level Denver Center
Thu 12:04:32 AM 43.4008 -107.1878 255° West 446 513 36,000  Level Salt Lake Center
Thu 12:05:33 AM 43.3686 -107.3467 254° West 450 518 36,000  Level Salt Lake Center
Thu 12:07:35 AM 43.2978 -107.6894 254° West 448 516 36,000  Level Salt Lake Center
Thu 12:08:36 AM 43.2656 -107.8478 254° West 448 516 36,000  Level Salt Lake Center
Thu 12:09:37 AM 43.2275 -108.0303 254° West 446 513 36,000  Level Salt Lake Center
Thu 12:10:38 AM 43.1956 -108.1867 254° West 445 512 36,000  Level Salt Lake Center
Thu 12:11:39 AM 43.1619 -108.3419 254° West 445 512 36,000  Level Salt Lake Center
Thu 12:12:40 AM 43.1233 -108.5239 254° West 446 513 36,000  Level Salt Lake Center
Thu 12:13:41 AM 43.0892 -108.6817 254° West 451 519 36,000  Level Salt Lake Center
Thu 12:14:42 AM 43.0547 -108.8400 253° West 454 522 36,000  Level Salt Lake Center
Thu 12:15:43 AM 43.0150 -109.0258 254° West 456 525 36,000  Level Salt Lake Center
Thu 12:16:44 AM 42.9794 -109.1839 253° West 454 522 36,000  Level Salt Lake Center
Thu 12:17:45 AM 42.9436 -109.3461 253° West 452 520 36,000 344 Level Salt Lake Center
Thu 12:18:46 AM 42.9022 -109.5297 253° West 455 524 36,700 885 Climbing Salt Lake Center
Thu 12:19:47 AM 42.8678 -109.6842 253° West 448 516 37,800 639 Climbing Salt Lake Center
Thu 12:20:48 AM 42.8331 -109.8353 253° West 440 506 38,000 98 Climbing Salt Lake Center
Thu 12:21:49 AM 42.7956 -110.0047 253° West 443 510 38,000  Level Salt Lake Center
Thu 12:22:50 AM 42.7533 -110.1853 252° West 446 513 38,000 49 Level Salt Lake Center
Thu 12:23:51 AM 42.7275 -110.2950 252° West 445 512 38,100  Climbing Salt Lake Center
Thu 12:24:52 AM 42.6792 -110.4986 252° West 444 511 38,000 -49 Descending Salt Lake Center
Thu 12:25:53 AM 42.6439 -110.6478 252° West 438 504 38,000  Level Salt Lake Center
Thu 12:26:54 AM 42.6025 -110.8264 253° West 442 509 38,000  Level Salt Lake Center
Thu 12:27:55 AM 42.5672 -110.9722 252° West 443 510 38,000 49 Level Salt Lake Center
Thu 12:28:56 AM 42.5275 -111.1333 252° West 450 518 38,100 49 Climbing Salt Lake Center
Thu 12:29:57 AM 42.4892 -111.2906 252° West 443 510 38,100 -49 Level Salt Lake Center
Thu 12:30:58 AM 42.4511 -111.4483 252° West 443 510 38,000 -49 Descending Salt Lake Center
Thu 12:31:59 AM 42.4128 -111.6033 252° West 439 505 38,000  Level Salt Lake Center
Thu 12:33:00 AM 42.3672 -111.7869 251° West 431 496 38,000  Level Salt Lake Center
Thu 12:34:01 AM 42.3292 -111.9367 251° West 427 491 38,000  Level Salt Lake Center
Thu 12:35:02 AM 42.2914 -112.0878 251° West 426 490 38,000  Level Salt Lake Center
Thu 12:36:03 AM 42.2533 -112.2386 251° West 427 491 38,000  Level Salt Lake Center
Thu 12:37:04 AM 42.2153 -112.3853 251° West 420 483 38,000  Level Salt Lake Center
Thu 12:38:05 AM 42.1703 -112.5361 248° West 429 494 38,000 49 Level Salt Lake Center
Thu 12:39:06 AM 42.1189 -112.6886 246° West 443 510 38,100  Climbing Salt Lake Center
Thu 12:40:07 AM 42.0681 -112.8383 245° Southwest 443 510 38,000 -49 Descending Salt Lake Center
Thu 12:41:08 AM 42.0147 -112.9881 244° Southwest 445 512 38,000  Level Salt Lake Center
Thu 12:42:09 AM 41.9653 -113.1367 246° West 440 506 38,000  Level Salt Lake Center
Thu 12:43:10 AM 41.9039 -113.3125 245° Southwest 437 503 38,000  Level Salt Lake Center
Thu 12:44:11 AM 41.8550 -113.4589 246° West 434 499 38,000  Level Salt Lake Center
Thu 12:45:12 AM 41.8031 -113.6053 245° Southwest 436 502 38,000  Level Salt Lake Center
Thu 12:46:13 AM 41.7508 -113.7497 244° Southwest 433 498 38,000  Level Salt Lake Center
Thu 12:47:14 AM 41.7008 -113.8947 245° Southwest 431 496 38,000  Level Salt Lake Center
Thu 12:48:15 AM 41.6494 -114.0375 244° Southwest 429 494 38,000  Level Salt Lake Center
Thu 12:49:16 AM 41.5989 -114.1808 245° Southwest 428 493 38,000  Level Salt Lake Center
Thu 12:50:16 AM 41.5481 -114.3244 245° Southwest 429 494 38,000  Level Salt Lake Center
Thu 12:51:17 AM 41.4947 -114.4689 244° Southwest 432 497 38,000 49 Level Salt Lake Center
Thu 12:52:18 AM 41.4431 -114.6133 245° Southwest 434 499 38,100  Climbing Salt Lake Center
Thu 12:53:19 AM 41.3903 -114.7561 244° Southwest 431 496 38,000 -49 Descending Salt Lake Center
Thu 12:54:20 AM 41.3308 -114.9194 244° Southwest 433 498 38,000  Level Salt Lake Center
Thu 12:55:21 AM 41.2811 -115.0553 244° Southwest 428 493 38,000  Level Salt Lake Center
Thu 12:56:22 AM 41.2211 -115.2133 243° Southwest 430 495 38,000  Level Salt Lake Center
Thu 12:57:23 AM 41.1703 -115.3511 244° Southwest 431 496 38,000  Level Salt Lake Center
Thu 12:58:24 AM 41.1186 -115.4878 243° Southwest 433 498 38,000  Level Salt Lake Center
Thu 12:59:25 AM 41.0586 -115.6494 244° Southwest 436 502 38,000  Level Salt Lake Center
Thu 01:00:26 AM 41.0058 -115.7864 243° Southwest 436 502 38,000  Level Salt Lake Center
Thu 01:01:27 AM 40.9547 -115.9244 244° Southwest 436 502 38,000  Level Salt Lake Center
Thu 01:02:27 AM 40.8936 -116.0842 243° Southwest 436 502 38,000  Level Salt Lake Center
Thu 01:03:28 AM 40.8406 -116.2217 243° Southwest 439 505 38,000  Level Salt Lake Center
Thu 01:04:29 AM 40.7869 -116.3608 243° Southwest 444 511 38,000  Level Salt Lake Center
Thu 01:05:30 AM 40.7264 -116.5211 244° Southwest 439 505 38,000  Level Salt Lake Center
Thu 01:06:31 AM 40.6736 -116.6567 243° Southwest 435 501 38,000  Level Salt Lake Center
Thu 01:07:32 AM 40.6200 -116.7919 242° Southwest 437 503 38,000  Level Salt Lake Center
Thu 01:08:33 AM 40.5619 -116.9486 244° Southwest 434 499 38,000  Level Salt Lake Center
Thu 01:09:33 AM 40.5267 -117.0892 252° West 429 494 38,000  Level Salt Lake Center
Thu 01:10:34 AM 40.4828 -117.2519 251° West 427 491 38,000  Level Salt Lake Center
Thu 01:11:35 AM 40.4456 -117.3947 251° West 431 496 38,000  Level Salt Lake Center
Thu 01:12:36 AM 40.4083 -117.5347 251° West 427 491 38,000  Level Salt Lake Center
Thu 01:13:37 AM 40.3636 -117.6986 250° West 429 494 38,000  Level Salt Lake Center
Thu 01:14:37 AM 40.3256 -117.8397 251° West 429 494 38,000  Level Salt Lake Center
Thu 01:15:01 AM 40.3078 -117.9108 252° West 429 494 38,000  Level Oakland Center
Thu 01:16:02 AM 40.2708 -118.0456 250° West 423 487 38,000  Level Oakland Center
Thu 01:17:02 AM 40.2314 -118.1931 251° West 428 493 38,000  Level Oakland Center
Thu 01:18:03 AM 40.1914 -118.3361 250° West 422 486 38,000  Level Oakland Center
Thu 01:19:04 AM 40.1511 -118.4844 250° West 432 497 38,000  Level Oakland Center
Thu 01:20:04 AM 40.1061 -118.6275 248° West 429 494 38,000  Level Oakland Center
Thu 01:21:05 AM 40.0681 -118.7769 252° West 434 499 38,000  Level Oakland Center
Thu 01:22:44 AM 39.9914 -119.0386 249° West 435 501 38,000  Level Salt Lake Center
Thu 01:23:07 AM 39.9733 -119.0981 248° West 435 501 38,000  Level Oakland Center
Thu 01:24:07 AM 39.9300 -119.2444 249° West 435 501 38,000  Level Oakland Center
Thu 01:25:08 AM 39.8864 -119.3900 249° West 435 501 38,000  Level Oakland Center
Thu 01:26:09 AM 39.8431 -119.5372 249° West 437 503 38,000  Level Oakland Center
Thu 01:27:10 AM 39.7983 -119.6828 248° West 437 503 38,000  Level Oakland Center
Thu 01:28:10 AM 39.7569 -119.8267 250° West 429 494 38,000  Level Oakland Center
Thu 01:29:11 AM 39.7136 -119.9733 249° West 436 502 38,000  Level Oakland Center
Thu 01:30:12 AM 39.6697 -120.1203 249° West 437 503 38,000  Level Oakland Center
Thu 01:31:12 AM 39.6300 -120.2536 249° West 435 501 38,000  Level Oakland Center
Thu 01:32:13 AM 39.5758 -120.4289 248° West 439 505 38,000  Level Oakland Center
Thu 01:33:14 AM 39.5158 -120.5650 240° Southwest 447 514 38,000  Level Oakland Center
Thu 01:34:15 AM 39.4394 -120.6892 231° Southwest 446 513 38,000  Level Oakland Center
Thu 01:35:15 AM 39.3636 -120.8136 232° Southwest 442 509 38,000  Level Oakland Center
Thu 01:36:16 AM 39.2886 -120.9383 232° Southwest 443 510 38,000  Level Oakland Center
Thu 01:37:17 AM 39.2122 -121.0633 232° Southwest 444 511 38,000  Level Oakland Center
Thu 01:38:18 AM 39.1369 -121.1883 232° Southwest 445 512 38,000  Level Oakland Center
Thu 01:39:18 AM 39.0614 -121.3117 232° Southwest 443 510 38,000  Level Oakland Center
Thu 01:40:19 AM 38.9850 -121.4350 231° Southwest 444 511 38,000 -49 Level Oakland Center
Thu 01:41:20 AM 38.9089 -121.5572 231° Southwest 443 510 37,900 -496 Descending Oakland Center
Thu 01:42:20 AM 38.8333 -121.6814 232° Southwest 444 511 37,000 -1,091 Descending Oakland Center
Thu 01:43:21 AM 38.7558 -121.8047 231° Southwest 448 516 35,700 -2,311 Descending Oakland Center
Thu 01:44:22 AM 38.6653 -121.9472 231° Southwest 450 518 32,300 -3,273 Descending Oakland Center
Thu 01:45:22 AM 38.5836 -122.0778 231° Southwest 467 537 29,100 -2,876 Descending Oakland Center
Thu 01:46:23 AM 38.5053 -122.2025 231° Southwest 455 524 26,500 -2,557 Descending Oakland Center
Thu 01:47:24 AM 38.4272 -122.3242 231° Southwest 445 512 23,900 -2,579 Descending Oakland Center
Thu 01:48:24 AM 38.3503 -122.4461 231° Southwest 444 511 21,300 -2,479 Descending Oakland Center
Thu 01:49:25 AM 38.2564 -122.5300 215° Southwest 427 491 18,900 -2,727 Descending Oakland Center
Thu 01:50:25 AM 38.1469 -122.5739 198° South 416 479 15,800 -2,678 Descending Oakland Center
Thu 01:51:26 AM 38.0483 -122.6144 198° South 381 438 13,500 -2,164 Descending Oakland Center
Thu 01:52:27 AM 37.9553 -122.6544 199° South 367 422 11,400 -1,289 Descending Oakland Center
Thu 01:53:27 AM 37.8508 -122.6492 178° South 340 391 10,900 -150 Descending Oakland Center
Thu 01:54:27 AM 37.7833 -122.5667 136° Southeast 322 371 11,100 100 Climbing Northern Cal TRACON
Thu 01:55:27 AM 37.7167 -122.4833 135° Southeast 322 371 11,100 -50 Level Northern Cal TRACON
Thu 01:56:27 AM 37.6500 -122.4167 142° Southeast 328 377 11,000 -50 Descending Northern Cal TRACON
Thu 01:57:27 AM 37.6000 -122.3500 133° Southeast 260 299 11,000 -700 Level Northern Cal TRACON
Thu 01:58:27 AM 37.5333 -122.3167 158° South 229 264 9,600 -1,600 Descending Northern Cal TRACON
Thu 01:59:27 AM 37.4833 -122.2833 152° Southeast 226 260 7,800 -1,300 Descending Northern Cal TRACON
Thu 02:00:27 AM 37.4167 -122.2500 158° South 226 260 7,000 -484 Descending Northern Cal TRACON
Thu 02:01:31 AM 37.4064 -122.1853 101° East 217 250 6,800 -450 Descending Oakland Center
Thu 02:02:27 AM 37.4000 -122.1167 97° East 193 222 6,100 -362 Descending Northern Cal TRACON
Thu 02:03:27 AM 37.4333 -122.0667 50° Northeast 212 244 6,100 -450 Level Northern Cal TRACON
Thu 02:04:27 AM 37.4833 -122.0500 15° North 201 231 5,200 -1,059 Descending Northern Cal TRACON
Thu 02:05:26 AM 37.5333 -122.1000 322° Northwest 200 230 4,000 -1,160 Descending Northern Cal TRACON
Thu 02:06:26 AM 37.5500 -122.1667 288° West 197 227 2,900 -950 Descending Northern Cal TRACON
Thu 02:07:26 AM 37.5667 -122.2167 293° West 184 212 2,100 -694 Descending Northern Cal TRACON
Thu 02:08:27 AM 37.5833 -122.2667 293° West 147 169 1,500 -645 Descending Northern Cal TRACON
Thu 02:09:27 AM 37.6000 -122.3167 293° West 134 154 800 -700 Descending Northern Cal TRACON

Login

Don't have an account? Register now (free) for customized features, flight alerts, and more!